sensor_id;sensor_type;location;lat;lon;timestamp;temperature;humidity
65046;DHT22;54657;52.022;5.534;2023-06-26T00:00:39;26.00;58.20
65046;DHT22;54657;52.022;5.534;2023-06-26T00:03:05;26.00;58.50
65046;DHT22;54657;52.022;5.534;2023-06-26T00:05:30;25.90;58.50
65046;DHT22;54657;52.022;5.534;2023-06-26T00:07:56;25.80;58.50
65046;DHT22;54657;52.022;5.534;2023-06-26T00:10:28;25.80;58.40
65046;DHT22;54657;52.022;5.534;2023-06-26T00:12:54;25.80;58.60
65046;DHT22;54657;52.022;5.534;2023-06-26T00:15:20;25.70;58.70
65046;DHT22;54657;52.022;5.534;2023-06-26T00:17:45;25.70;58.80
65046;DHT22;54657;52.022;5.534;2023-06-26T00:20:11;25.60;59.00
65046;DHT22;54657;52.022;5.534;2023-06-26T00:22:36;25.60;59.00
65046;DHT22;54657;52.022;5.534;2023-06-26T00:25:06;25.60;59.20
65046;DHT22;54657;52.022;5.534;2023-06-26T00:27:32;25.50;59.40
65046;DHT22;54657;52.022;5.534;2023-06-26T00:29:57;25.50;59.60
65046;DHT22;54657;52.022;5.534;2023-06-26T00:32:23;25.40;59.60
65046;DHT22;54657;52.022;5.534;2023-06-26T00:34:48;25.40;60.40
65046;DHT22;54657;52.022;5.534;2023-06-26T00:37:14;25.30;59.90
65046;DHT22;54657;52.022;5.534;2023-06-26T00:39:39;25.30;59.90
65046;DHT22;54657;52.022;5.534;2023-06-26T00:42:06;25.30;60.00
65046;DHT22;54657;52.022;5.534;2023-06-26T00:44:32;25.30;60.00
65046;DHT22;54657;52.022;5.534;2023-06-26T00:46:57;25.30;60.00
65046;DHT22;54657;52.022;5.534;2023-06-26T00:49:23;25.30;59.80
65046;DHT22;54657;52.022;5.534;2023-06-26T00:51:49;25.30;59.80
65046;DHT22;54657;52.022;5.534;2023-06-26T00:54:15;25.30;59.80
65046;DHT22;54657;52.022;5.534;2023-06-26T00:56:46;25.30;59.90
65046;DHT22;54657;52.022;5.534;2023-06-26T00:59:12;25.30;59.90
65046;DHT22;54657;52.022;5.534;2023-06-26T01:01:38;25.20;60.00
65046;DHT22;54657;52.022;5.534;2023-06-26T01:04:03;25.20;60.10
65046;DHT22;54657;52.022;5.534;2023-06-26T01:06:31;25.20;60.20
65046;DHT22;54657;52.022;5.534;2023-06-26T01:09:01;25.10;60.20
65046;DHT22;54657;52.022;5.534;2023-06-26T01:11:27;25.10;60.30
65046;DHT22;54657;52.022;5.534;2023-06-26T01:13:52;25.00;60.40
65046;DHT22;54657;52.022;5.534;2023-06-26T01:16:19;25.00;60.40
65046;DHT22;54657;52.022;5.534;2023-06-26T01:18:45;25.00;60.70
65046;DHT22;54657;52.022;5.534;2023-06-26T01:21:14;24.90;60.90
65046;DHT22;54657;52.022;5.534;2023-06-26T01:26:32;24.80;61.70
65046;DHT22;54657;52.022;5.534;2023-06-26T01:29:01;24.70;61.30
65046;DHT22;54657;52.022;5.534;2023-06-26T01:31:28;24.70;61.40
65046;DHT22;54657;52.022;5.534;2023-06-26T01:33:57;24.70;61.40
65046;DHT22;54657;52.022;5.534;2023-06-26T01:36:23;24.60;61.50
65046;DHT22;54657;52.022;5.534;2023-06-26T01:38:49;24.50;61.50
65046;DHT22;54657;52.022;5.534;2023-06-26T01:41:15;24.50;61.60
65046;DHT22;54657;52.022;5.534;2023-06-26T01:46:27;24.40;62.60
65046;DHT22;54657;52.022;5.534;2023-06-26T01:48:59;24.30;61.90
65046;DHT22;54657;52.022;5.534;2023-06-26T01:51:33;24.20;61.70
65046;DHT22;54657;52.022;5.534;2023-06-26T01:54:01;24.10;62.20
65046;DHT22;54657;52.022;5.534;2023-06-26T01:56:27;24.00;62.30
65046;DHT22;54657;52.022;5.534;2023-06-26T01:58:54;24.00;62.40
65046;DHT22;54657;52.022;5.534;2023-06-26T02:01:20;23.90;62.70
65046;DHT22;54657;52.022;5.534;2023-06-26T02:03:46;23.80;62.80
65046;DHT22;54657;52.022;5.534;2023-06-26T02:06:11;23.80;62.90
65046;DHT22;54657;52.022;5.534;2023-06-26T02:08:37;23.70;63.00
65046;DHT22;54657;52.022;5.534;2023-06-26T02:11:03;23.70;63.20
65046;DHT22;54657;52.022;5.534;2023-06-26T02:13:28;23.60;63.40
65046;DHT22;54657;52.022;5.534;2023-06-26T02:15:54;23.60;63.50
65046;DHT22;54657;52.022;5.534;2023-06-26T02:18:19;23.60;63.70
65046;DHT22;54657;52.022;5.534;2023-06-26T02:20:48;23.50;63.90
65046;DHT22;54657;52.022;5.534;2023-06-26T02:23:13;23.50;64.10
65046;DHT22;54657;52.022;5.534;2023-06-26T02:25:39;23.40;64.20
65046;DHT22;54657;52.022;5.534;2023-06-26T02:28:05;23.40;64.20
65046;DHT22;54657;52.022;5.534;2023-06-26T02:30:30;23.40;64.30
65046;DHT22;54657;52.022;5.534;2023-06-26T02:32:56;23.40;64.40
65046;DHT22;54657;52.022;5.534;2023-06-26T02:35:21;23.30;64.40
65046;DHT22;54657;52.022;5.534;2023-06-26T02:37:47;23.30;64.60
65046;DHT22;54657;52.022;5.534;2023-06-26T02:40:12;23.20;64.60
65046;DHT22;54657;52.022;5.534;2023-06-26T02:42:38;23.20;64.80
65046;DHT22;54657;52.022;5.534;2023-06-26T02:45:04;23.20;64.70
65046;DHT22;54657;52.022;5.534;2023-06-26T02:47:29;23.20;65.00
65046;DHT22;54657;52.022;5.534;2023-06-26T02:49:55;23.10;65.20
65046;DHT22;54657;52.022;5.534;2023-06-26T02:52:20;23.10;65.30
65046;DHT22;54657;52.022;5.534;2023-06-26T02:54:46;23.10;65.50
65046;DHT22;54657;52.022;5.534;2023-06-26T02:57:12;23.00;65.80
65046;DHT22;54657;52.022;5.534;2023-06-26T02:59:40;23.00;66.00
65046;DHT22;54657;52.022;5.534;2023-06-26T03:02:05;23.00;66.20
65046;DHT22;54657;52.022;5.534;2023-06-26T03:04:31;22.90;66.40
65046;DHT22;54657;52.022;5.534;2023-06-26T03:06:57;22.90;66.30
65046;DHT22;54657;52.022;5.534;2023-06-26T03:09:22;22.80;66.80
65046;DHT22;54657;52.022;5.534;2023-06-26T03:11:48;22.80;66.90
65046;DHT22;54657;52.022;5.534;2023-06-26T03:14:13;22.70;67.40
65046;DHT22;54657;52.022;5.534;2023-06-26T03:16:39;22.70;67.60
65046;DHT22;54657;52.022;5.534;2023-06-26T03:19:05;22.70;67.60
65046;DHT22;54657;52.022;5.534;2023-06-26T03:21:32;22.70;67.70
65046;DHT22;54657;52.022;5.534;2023-06-26T03:23:58;22.60;67.70
65046;DHT22;54657;52.022;5.534;2023-06-26T03:26:23;22.60;67.80
65046;DHT22;54657;52.022;5.534;2023-06-26T03:28:53;22.60;68.10
65046;DHT22;54657;52.022;5.534;2023-06-26T03:31:19;22.60;68.00
65046;DHT22;54657;52.022;5.534;2023-06-26T03:33:44;22.60;67.90
65046;DHT22;54657;52.022;5.534;2023-06-26T03:36:10;22.60;68.20
65046;DHT22;54657;52.022;5.534;2023-06-26T03:38:35;22.60;68.30
65046;DHT22;54657;52.022;5.534;2023-06-26T03:41:01;22.50;68.60
65046;DHT22;54657;52.022;5.534;2023-06-26T03:43:27;22.50;69.00
65046;DHT22;54657;52.022;5.534;2023-06-26T03:45:53;22.50;68.70
65046;DHT22;54657;52.022;5.534;2023-06-26T03:48:19;22.50;69.30
65046;DHT22;54657;52.022;5.534;2023-06-26T03:50:45;22.50;69.80
65046;DHT22;54657;52.022;5.534;2023-06-26T03:53:10;22.50;69.40
65046;DHT22;54657;52.022;5.534;2023-06-26T03:55:37;22.40;69.80
65046;DHT22;54657;52.022;5.534;2023-06-26T03:58:04;22.50;69.70
65046;DHT22;54657;52.022;5.534;2023-06-26T04:00:29;22.40;69.90
65046;DHT22;54657;52.022;5.534;2023-06-26T04:02:55;22.40;70.30
65046;DHT22;54657;52.022;5.534;2023-06-26T04:05:20;22.40;70.40
65046;DHT22;54657;52.022;5.534;2023-06-26T04:07:50;22.40;70.70
65046;DHT22;54657;52.022;5.534;2023-06-26T04:10:15;22.30;71.40
65046;DHT22;54657;52.022;5.534;2023-06-26T04:12:41;22.30;70.80
65046;DHT22;54657;52.022;5.534;2023-06-26T04:15:07;22.30;70.90
65046;DHT22;54657;52.022;5.534;2023-06-26T04:17:33;22.30;71.20
65046;DHT22;54657;52.022;5.534;2023-06-26T04:19:58;22.30;71.30
65046;DHT22;54657;52.022;5.534;2023-06-26T04:22:24;22.30;71.60
65046;DHT22;54657;52.022;5.534;2023-06-26T04:24:51;22.30;71.70
65046;DHT22;54657;52.022;5.534;2023-06-26T04:27:17;22.30;71.70
65046;DHT22;54657;52.022;5.534;2023-06-26T04:29:43;22.20;72.10
65046;DHT22;54657;52.022;5.534;2023-06-26T04:32:09;22.30;72.50
65046;DHT22;54657;52.022;5.534;2023-06-26T04:34:34;22.30;72.00
65046;DHT22;54657;52.022;5.534;2023-06-26T04:37:02;22.30;71.80
65046;DHT22;54657;52.022;5.534;2023-06-26T04:39:30;22.30;71.90
65046;DHT22;54657;52.022;5.534;2023-06-26T04:41:56;22.40;71.80
65046;DHT22;54657;52.022;5.534;2023-06-26T04:44:21;22.40;71.70
65046;DHT22;54657;52.022;5.534;2023-06-26T04:46:47;22.50;71.50
65046;DHT22;54657;52.022;5.534;2023-06-26T04:49:12;22.60;71.40
65046;DHT22;54657;52.022;5.534;2023-06-26T04:51:38;22.70;71.10
65046;DHT22;54657;52.022;5.534;2023-06-26T04:54:06;22.70;71.30
65046;DHT22;54657;52.022;5.534;2023-06-26T04:56:32;22.70;71.10
65046;DHT22;54657;52.022;5.534;2023-06-26T04:58:58;22.80;70.90
65046;DHT22;54657;52.022;5.534;2023-06-26T05:01:23;22.90;70.50
65046;DHT22;54657;52.022;5.534;2023-06-26T05:03:49;22.90;70.40
65046;DHT22;54657;52.022;5.534;2023-06-26T05:06:14;22.80;70.30
65046;DHT22;54657;52.022;5.534;2023-06-26T05:08:40;22.80;70.40
65046;DHT22;54657;52.022;5.534;2023-06-26T05:11:06;22.70;70.30
65046;DHT22;54657;52.022;5.534;2023-06-26T05:13:32;22.70;70.60
65046;DHT22;54657;52.022;5.534;2023-06-26T05:15:57;22.70;70.50
65046;DHT22;54657;52.022;5.534;2023-06-26T05:18:23;22.70;70.50
65046;DHT22;54657;52.022;5.534;2023-06-26T05:20:49;22.70;70.10
65046;DHT22;54657;52.022;5.534;2023-06-26T05:23:16;22.60;70.10
65046;DHT22;54657;52.022;5.534;2023-06-26T05:25:42;22.60;70.50
65046;DHT22;54657;52.022;5.534;2023-06-26T05:28:08;22.50;70.10
65046;DHT22;54657;52.022;5.534;2023-06-26T05:30:36;22.50;70.10
65046;DHT22;54657;52.022;5.534;2023-06-26T05:33:02;22.50;70.10
65046;DHT22;54657;52.022;5.534;2023-06-26T05:35:29;22.50;69.90
65046;DHT22;54657;52.022;5.534;2023-06-26T05:37:56;22.40;70.00
65046;DHT22;54657;52.022;5.534;2023-06-26T05:40:23;22.40;69.90
65046;DHT22;54657;52.022;5.534;2023-06-26T05:42:49;22.40;70.00
65046;DHT22;54657;52.022;5.534;2023-06-26T05:45:15;22.30;69.90
65046;DHT22;54657;52.022;5.534;2023-06-26T05:47:41;22.30;70.00
65046;DHT22;54657;52.022;5.534;2023-06-26T05:50:08;22.40;69.80
65046;DHT22;54657;52.022;5.534;2023-06-26T05:52:35;22.40;69.50
65046;DHT22;54657;52.022;5.534;2023-06-26T05:55:01;22.40;69.70
65046;DHT22;54657;52.022;5.534;2023-06-26T05:57:28;22.40;69.50
65046;DHT22;54657;52.022;5.534;2023-06-26T05:59:54;22.50;69.60
65046;DHT22;54657;52.022;5.534;2023-06-26T06:02:20;22.50;69.20
65046;DHT22;54657;52.022;5.534;2023-06-26T06:04:46;22.50;69.10
65046;DHT22;54657;52.022;5.534;2023-06-26T06:07:12;22.50;69.00
65046;DHT22;54657;52.022;5.534;2023-06-26T06:09:37;22.50;68.70
65046;DHT22;54657;52.022;5.534;2023-06-26T06:12:04;22.60;68.60
65046;DHT22;54657;52.022;5.534;2023-06-26T06:14:31;22.60;68.40
65046;DHT22;54657;52.022;5.534;2023-06-26T06:16:57;22.60;68.50
65046;DHT22;54657;52.022;5.534;2023-06-26T06:19:22;22.70;68.40
65046;DHT22;54657;52.022;5.534;2023-06-26T06:21:48;22.70;68.20
65046;DHT22;54657;52.022;5.534;2023-06-26T06:24:13;22.80;68.30
65046;DHT22;54657;52.022;5.534;2023-06-26T06:26:39;22.90;67.90
65046;DHT22;54657;52.022;5.534;2023-06-26T06:29:05;22.90;67.80
65046;DHT22;54657;52.022;5.534;2023-06-26T06:31:31;23.00;67.70
65046;DHT22;54657;52.022;5.534;2023-06-26T06:33:57;23.10;67.50
65046;DHT22;54657;52.022;5.534;2023-06-26T06:36:22;23.10;67.10
65046;DHT22;54657;52.022;5.534;2023-06-26T06:38:48;23.00;67.00
65046;DHT22;54657;52.022;5.534;2023-06-26T06:41:13;23.10;67.30
65046;DHT22;54657;52.022;5.534;2023-06-26T06:43:39;23.20;67.00
65046;DHT22;54657;52.022;5.534;2023-06-26T06:46:05;23.30;67.00
65046;DHT22;54657;52.022;5.534;2023-06-26T06:48:31;23.50;66.90
65046;DHT22;54657;52.022;5.534;2023-06-26T06:50:57;23.50;66.60
65046;DHT22;54657;52.022;5.534;2023-06-26T06:53:22;23.50;66.80
65046;DHT22;54657;52.022;5.534;2023-06-26T06:55:49;23.50;66.70
65046;DHT22;54657;52.022;5.534;2023-06-26T06:58:15;23.40;66.90
65046;DHT22;54657;52.022;5.534;2023-06-26T07:00:42;23.40;67.00
65046;DHT22;54657;52.022;5.534;2023-06-26T07:03:08;23.50;67.10
65046;DHT22;54657;52.022;5.534;2023-06-26T07:05:34;23.60;67.10
65046;DHT22;54657;52.022;5.534;2023-06-26T07:07:59;23.60;67.10
65046;DHT22;54657;52.022;5.534;2023-06-26T07:10:25;23.60;67.30
65046;DHT22;54657;52.022;5.534;2023-06-26T07:12:50;23.60;67.20
65046;DHT22;54657;52.022;5.534;2023-06-26T07:15:16;23.40;67.30
65046;DHT22;54657;52.022;5.534;2023-06-26T07:17:42;23.30;67.50
65046;DHT22;54657;52.022;5.534;2023-06-26T07:20:08;23.10;67.70
65046;DHT22;54657;52.022;5.534;2023-06-26T07:22:36;23.10;67.80
65046;DHT22;54657;52.022;5.534;2023-06-26T07:25:01;23.20;67.90
65046;DHT22;54657;52.022;5.534;2023-06-26T07:27:27;23.30;67.40
65046;DHT22;54657;52.022;5.534;2023-06-26T07:29:53;23.20;67.40
65046;DHT22;54657;52.022;5.534;2023-06-26T07:32:18;23.20;67.60
65046;DHT22;54657;52.022;5.534;2023-06-26T07:34:44;23.30;67.80
65046;DHT22;54657;52.022;5.534;2023-06-26T07:37:09;23.30;67.70
65046;DHT22;54657;52.022;5.534;2023-06-26T07:39:35;23.30;67.70
65046;DHT22;54657;52.022;5.534;2023-06-26T07:42:01;23.30;68.00
65046;DHT22;54657;52.022;5.534;2023-06-26T07:44:26;23.40;67.70
65046;DHT22;54657;52.022;5.534;2023-06-26T07:46:52;23.50;67.60
65046;DHT22;54657;52.022;5.534;2023-06-26T07:49:18;23.70;67.30
65046;DHT22;54657;52.022;5.534;2023-06-26T07:51:43;23.70;67.60
65046;DHT22;54657;52.022;5.534;2023-06-26T07:54:09;23.70;67.10
65046;DHT22;54657;52.022;5.534;2023-06-26T07:57:01;23.40;67.50
65046;DHT22;54657;52.022;5.534;2023-06-26T07:59:28;23.30;68.00
65046;DHT22;54657;52.022;5.534;2023-06-26T08:01:55;23.20;68.10
65046;DHT22;54657;52.022;5.534;2023-06-26T08:04:23;23.30;68.20
65046;DHT22;54657;52.022;5.534;2023-06-26T08:06:51;23.40;68.00
65046;DHT22;54657;52.022;5.534;2023-06-26T08:09:19;23.40;67.70
65046;DHT22;54657;52.022;5.534;2023-06-26T08:11:45;23.40;67.60
65046;DHT22;54657;52.022;5.534;2023-06-26T08:14:11;23.40;68.00
65046;DHT22;54657;52.022;5.534;2023-06-26T08:16:40;23.70;67.80
65046;DHT22;54657;52.022;5.534;2023-06-26T08:19:06;23.90;67.30
65046;DHT22;54657;52.022;5.534;2023-06-26T08:21:32;23.90;66.80
65046;DHT22;54657;52.022;5.534;2023-06-26T08:23:57;24.00;66.60
65046;DHT22;54657;52.022;5.534;2023-06-26T08:26:23;23.90;66.70
65046;DHT22;54657;52.022;5.534;2023-06-26T08:28:49;24.00;66.40
65046;DHT22;54657;52.022;5.534;2023-06-26T08:31:15;23.90;65.80
65046;DHT22;54657;52.022;5.534;2023-06-26T08:33:40;23.90;66.20
65046;DHT22;54657;52.022;5.534;2023-06-26T08:36:06;23.90;66.30
65046;DHT22;54657;52.022;5.534;2023-06-26T08:38:32;23.90;66.00
65046;DHT22;54657;52.022;5.534;2023-06-26T08:40:58;23.90;66.10
65046;DHT22;54657;52.022;5.534;2023-06-26T08:43:24;24.00;65.80
65046;DHT22;54657;52.022;5.534;2023-06-26T08:45:50;24.10;65.90
65046;DHT22;54657;52.022;5.534;2023-06-26T08:48:17;24.10;66.00
65046;DHT22;54657;52.022;5.534;2023-06-26T08:50:43;24.30;65.60
65046;DHT22;54657;52.022;5.534;2023-06-26T08:53:21;24.40;65.40
65046;DHT22;54657;52.022;5.534;2023-06-26T08:55:50;24.50;64.50
65046;DHT22;54657;52.022;5.534;2023-06-26T08:58:17;24.30;64.70
65046;DHT22;54657;52.022;5.534;2023-06-26T09:00:43;24.00;65.00
65046;DHT22;54657;52.022;5.534;2023-06-26T09:03:09;24.10;65.40
65046;DHT22;54657;52.022;5.534;2023-06-26T09:05:35;24.10;64.60
65046;DHT22;54657;52.022;5.534;2023-06-26T09:08:01;24.20;64.00
65046;DHT22;54657;52.022;5.534;2023-06-26T09:10:27;24.30;63.90
65046;DHT22;54657;52.022;5.534;2023-06-26T09:12:55;24.30;63.80
65046;DHT22;54657;52.022;5.534;2023-06-26T09:15:22;24.30;63.30
65046;DHT22;54657;52.022;5.534;2023-06-26T09:17:48;24.30;63.40
65046;DHT22;54657;52.022;5.534;2023-06-26T09:20:14;24.10;63.30
65046;DHT22;54657;52.022;5.534;2023-06-26T09:22:42;24.20;63.30
65046;DHT22;54657;52.022;5.534;2023-06-26T09:25:09;24.30;62.50
65046;DHT22;54657;52.022;5.534;2023-06-26T09:27:35;24.10;61.70
65046;DHT22;54657;52.022;5.534;2023-06-26T09:30:06;23.90;62.30
65046;DHT22;54657;52.022;5.534;2023-06-26T09:32:36;24.00;61.00
65046;DHT22;54657;52.022;5.534;2023-06-26T09:35:03;24.00;61.70
65046;DHT22;54657;52.022;5.534;2023-06-26T09:37:29;23.90;61.70
65046;DHT22;54657;52.022;5.534;2023-06-26T09:39:55;24.00;61.70
65046;DHT22;54657;52.022;5.534;2023-06-26T09:42:21;24.10;61.70
65046;DHT22;54657;52.022;5.534;2023-06-26T09:44:47;24.30;61.70
65046;DHT22;54657;52.022;5.534;2023-06-26T09:47:18;24.50;60.80
65046;DHT22;54657;52.022;5.534;2023-06-26T09:49:43;24.50;60.50
65046;DHT22;54657;52.022;5.534;2023-06-26T09:52:09;24.50;60.50
65046;DHT22;54657;52.022;5.534;2023-06-26T09:54:35;24.30;60.70
65046;DHT22;54657;52.022;5.534;2023-06-26T09:57:28;24.10;61.70
65046;DHT22;54657;52.022;5.534;2023-06-26T09:59:53;24.20;60.00
65046;DHT22;54657;52.022;5.534;2023-06-26T10:02:19;24.10;61.00
65046;DHT22;54657;52.022;5.534;2023-06-26T10:04:45;24.20;61.30
65046;DHT22;54657;52.022;5.534;2023-06-26T10:07:11;24.10;60.40
65046;DHT22;54657;52.022;5.534;2023-06-26T10:09:41;24.00;60.20
65046;DHT22;54657;52.022;5.534;2023-06-26T10:12:20;24.00;60.00
65046;DHT22;54657;52.022;5.534;2023-06-26T10:14:50;24.00;59.60
65046;DHT22;54657;52.022;5.534;2023-06-26T10:17:19;24.10;60.80
65046;DHT22;54657;52.022;5.534;2023-06-26T10:19:47;24.20;60.40
65046;DHT22;54657;52.022;5.534;2023-06-26T10:22:15;24.40;59.90
65046;DHT22;54657;52.022;5.534;2023-06-26T10:24:43;24.30;59.60
65046;DHT22;54657;52.022;5.534;2023-06-26T10:27:20;24.30;60.30
65046;DHT22;54657;52.022;5.534;2023-06-26T10:29:49;24.30;59.60
65046;DHT22;54657;52.022;5.534;2023-06-26T10:32:17;24.40;59.20
65046;DHT22;54657;52.022;5.534;2023-06-26T10:34:43;24.40;58.70
65046;DHT22;54657;52.022;5.534;2023-06-26T10:37:09;24.50;58.80
65046;DHT22;54657;52.022;5.534;2023-06-26T10:39:52;24.50;59.00
65046;DHT22;54657;52.022;5.534;2023-06-26T10:42:34;24.60;58.80
65046;DHT22;54657;52.022;5.534;2023-06-26T10:45:09;24.70;58.10
65046;DHT22;54657;52.022;5.534;2023-06-26T10:47:36;24.50;56.80
65046;DHT22;54657;52.022;5.534;2023-06-26T10:50:36;24.40;58.40
65046;DHT22;54657;52.022;5.534;2023-06-26T10:58:40;24.80;56.60
65046;DHT22;54657;52.022;5.534;2023-06-26T11:04:03;24.20;54.60
65046;DHT22;54657;52.022;5.534;2023-06-26T11:06:30;24.10;54.60
65046;DHT22;54657;52.022;5.534;2023-06-26T11:09:17;24.00;56.80
65046;DHT22;54657;52.022;5.534;2023-06-26T11:14:23;24.30;56.20
65046;DHT22;54657;52.022;5.534;2023-06-26T11:16:49;24.40;57.00
65046;DHT22;54657;52.022;5.534;2023-06-26T11:19:17;24.40;57.00
65046;DHT22;54657;52.022;5.534;2023-06-26T11:21:43;24.30;55.90
65046;DHT22;54657;52.022;5.534;2023-06-26T11:24:10;24.20;56.50
65046;DHT22;54657;52.022;5.534;2023-06-26T11:26:40;24.20;56.00
65046;DHT22;54657;52.022;5.534;2023-06-26T11:29:06;24.40;55.30
65046;DHT22;54657;52.022;5.534;2023-06-26T11:31:39;24.60;55.00
65046;DHT22;54657;52.022;5.534;2023-06-26T11:34:08;24.70;54.80
65046;DHT22;54657;52.022;5.534;2023-06-26T11:36:35;25.00;54.60
65046;DHT22;54657;52.022;5.534;2023-06-26T11:39:06;25.00;54.40
65046;DHT22;54657;52.022;5.534;2023-06-26T11:41:37;25.00;54.50
65046;DHT22;54657;52.022;5.534;2023-06-26T11:44:08;24.90;55.00
65046;DHT22;54657;52.022;5.534;2023-06-26T11:46:39;24.90;54.50
65046;DHT22;54657;52.022;5.534;2023-06-26T11:49:06;24.70;55.20
65046;DHT22;54657;52.022;5.534;2023-06-26T11:51:32;24.70;55.30
65046;DHT22;54657;52.022;5.534;2023-06-26T11:54:01;24.80;55.40
65046;DHT22;54657;52.022;5.534;2023-06-26T11:56:28;25.00;55.20
65046;DHT22;54657;52.022;5.534;2023-06-26T11:59:01;25.10;54.30
65046;DHT22;54657;52.022;5.534;2023-06-26T12:01:43;25.10;53.20
65046;DHT22;54657;52.022;5.534;2023-06-26T12:04:15;25.10;53.90
65046;DHT22;54657;52.022;5.534;2023-06-26T12:06:52;25.20;53.70
65046;DHT22;54657;52.022;5.534;2023-06-26T12:09:22;25.20;52.20
65046;DHT22;54657;52.022;5.534;2023-06-26T12:11:52;25.00;54.00
65046;DHT22;54657;52.022;5.534;2023-06-26T12:14:20;25.00;54.00
65046;DHT22;54657;52.022;5.534;2023-06-26T12:16:46;24.90;54.20
65046;DHT22;54657;52.022;5.534;2023-06-26T12:19:12;24.90;54.20
65046;DHT22;54657;52.022;5.534;2023-06-26T12:24:04;24.70;53.70
65046;DHT22;54657;52.022;5.534;2023-06-26T12:26:30;24.70;54.10
65046;DHT22;54657;52.022;5.534;2023-06-26T12:29:06;24.90;53.70
65046;DHT22;54657;52.022;5.534;2023-06-26T12:31:33;24.90;52.60
65046;DHT22;54657;52.022;5.534;2023-06-26T12:34:00;24.90;53.70
65046;DHT22;54657;52.022;5.534;2023-06-26T12:36:26;24.70;52.90
65046;DHT22;54657;52.022;5.534;2023-06-26T12:38:53;24.50;52.80
65046;DHT22;54657;52.022;5.534;2023-06-26T12:41:19;24.20;52.60
65046;DHT22;54657;52.022;5.534;2023-06-26T12:43:46;24.00;53.10
65046;DHT22;54657;52.022;5.534;2023-06-26T12:46:12;24.00;52.90
65046;DHT22;54657;52.022;5.534;2023-06-26T12:48:42;24.10;53.00
65046;DHT22;54657;52.022;5.534;2023-06-26T12:51:16;24.30;52.70
65046;DHT22;54657;52.022;5.534;2023-06-26T12:53:42;24.40;52.40
65046;DHT22;54657;52.022;5.534;2023-06-26T12:56:08;24.50;52.60
65046;DHT22;54657;52.022;5.534;2023-06-26T12:58:35;24.70;52.00
65046;DHT22;54657;52.022;5.534;2023-06-26T13:01:05;24.70;51.80
65046;DHT22;54657;52.022;5.534;2023-06-26T13:03:32;24.70;51.00
65046;DHT22;54657;52.022;5.534;2023-06-26T13:05:58;24.80;51.70
65046;DHT22;54657;52.022;5.534;2023-06-26T13:08:24;24.90;51.20
65046;DHT22;54657;52.022;5.534;2023-06-26T13:10:49;24.90;51.00
65046;DHT22;54657;52.022;5.534;2023-06-26T13:13:15;24.70;50.60
65046;DHT22;54657;52.022;5.534;2023-06-26T13:15:40;24.50;51.00
65046;DHT22;54657;52.022;5.534;2023-06-26T13:18:06;24.40;51.10
65046;DHT22;54657;52.022;5.534;2023-06-26T13:20:31;24.50;51.00
65046;DHT22;54657;52.022;5.534;2023-06-26T13:22:57;24.40;51.30
65046;DHT22;54657;52.022;5.534;2023-06-26T13:25:23;24.40;51.30
65046;DHT22;54657;52.022;5.534;2023-06-26T13:27:48;24.40;51.70
65046;DHT22;54657;52.022;5.534;2023-06-26T13:30:15;24.50;51.70
65046;DHT22;54657;52.022;5.534;2023-06-26T13:32:41;24.40;50.90
65046;DHT22;54657;52.022;5.534;2023-06-26T13:35:07;24.30;51.40
65046;DHT22;54657;52.022;5.534;2023-06-26T13:37:34;24.20;51.60
65046;DHT22;54657;52.022;5.534;2023-06-26T13:40:00;24.10;52.20
65046;DHT22;54657;52.022;5.534;2023-06-26T13:42:26;24.10;51.40
65046;DHT22;54657;52.022;5.534;2023-06-26T13:44:52;24.20;51.50
65046;DHT22;54657;52.022;5.534;2023-06-26T13:47:17;24.20;51.60
65046;DHT22;54657;52.022;5.534;2023-06-26T13:49:43;24.30;51.50
65046;DHT22;54657;52.022;5.534;2023-06-26T13:52:09;24.20;51.20
65046;DHT22;54657;52.022;5.534;2023-06-26T13:54:36;24.10;51.50
65046;DHT22;54657;52.022;5.534;2023-06-26T13:57:03;24.10;51.20
65046;DHT22;54657;52.022;5.534;2023-06-26T13:59:30;24.20;51.50
65046;DHT22;54657;52.022;5.534;2023-06-26T14:01:56;24.40;51.40
65046;DHT22;54657;52.022;5.534;2023-06-26T14:04:22;24.50;49.90
65046;DHT22;54657;52.022;5.534;2023-06-26T14:06:47;24.20;50.50
65046;DHT22;54657;52.022;5.534;2023-06-26T14:09:13;24.20;50.60
65046;DHT22;54657;52.022;5.534;2023-06-26T14:11:39;24.10;50.70
65046;DHT22;54657;52.022;5.534;2023-06-26T14:14:04;24.10;51.00
65046;DHT22;54657;52.022;5.534;2023-06-26T14:16:30;24.00;50.80
65046;DHT22;54657;52.022;5.534;2023-06-26T14:18:56;24.00;50.70
65046;DHT22;54657;52.022;5.534;2023-06-26T14:21:21;23.90;50.60
65046;DHT22;54657;52.022;5.534;2023-06-26T14:23:47;23.70;51.50
65046;DHT22;54657;52.022;5.534;2023-06-26T14:26:12;23.70;51.30
65046;DHT22;54657;52.022;5.534;2023-06-26T14:28:38;23.80;51.10
65046;DHT22;54657;52.022;5.534;2023-06-26T14:31:05;23.90;51.20
65046;DHT22;54657;52.022;5.534;2023-06-26T14:33:30;23.90;51.20
65046;DHT22;54657;52.022;5.534;2023-06-26T14:35:56;24.10;51.00
65046;DHT22;54657;52.022;5.534;2023-06-26T14:38:22;24.00;51.10
65046;DHT22;54657;52.022;5.534;2023-06-26T14:40:47;23.90;51.10
65046;DHT22;54657;52.022;5.534;2023-06-26T14:43:13;23.80;51.10
65046;DHT22;54657;52.022;5.534;2023-06-26T14:45:39;23.90;51.20
65046;DHT22;54657;52.022;5.534;2023-06-26T14:48:04;23.80;50.80
65046;DHT22;54657;52.022;5.534;2023-06-26T14:50:30;23.80;50.70
65046;DHT22;54657;52.022;5.534;2023-06-26T14:52:55;23.70;50.90
65046;DHT22;54657;52.022;5.534;2023-06-26T14:55:21;23.60;50.90
65046;DHT22;54657;52.022;5.534;2023-06-26T14:57:47;23.70;51.00
65046;DHT22;54657;52.022;5.534;2023-06-26T15:00:13;23.80;50.70
65046;DHT22;54657;52.022;5.534;2023-06-26T15:02:38;23.80;50.60
65046;DHT22;54657;52.022;5.534;2023-06-26T15:05:04;23.80;50.50
65046;DHT22;54657;52.022;5.534;2023-06-26T15:07:30;23.80;50.40
65046;DHT22;54657;52.022;5.534;2023-06-26T15:09:55;23.70;50.40
65046;DHT22;54657;52.022;5.534;2023-06-26T15:12:22;23.60;50.40
65046;DHT22;54657;52.022;5.534;2023-06-26T15:14:48;23.50;50.70
65046;DHT22;54657;52.022;5.534;2023-06-26T15:17:14;23.40;50.70
65046;DHT22;54657;52.022;5.534;2023-06-26T15:19:40;23.40;50.70
65046;DHT22;54657;52.022;5.534;2023-06-26T15:22:06;23.50;50.40
65046;DHT22;54657;52.022;5.534;2023-06-26T15:24:32;23.50;50.50
65046;DHT22;54657;52.022;5.534;2023-06-26T15:26:57;23.60;50.60
65046;DHT22;54657;52.022;5.534;2023-06-26T15:29:23;23.60;50.50
65046;DHT22;54657;52.022;5.534;2023-06-26T15:31:49;23.40;50.70
65046;DHT22;54657;52.022;5.534;2023-06-26T15:34:14;23.20;50.90
65046;DHT22;54657;52.022;5.534;2023-06-26T15:36:40;23.10;51.50
65046;DHT22;54657;52.022;5.534;2023-06-26T15:39:06;23.00;51.60
65046;DHT22;54657;52.022;5.534;2023-06-26T15:41:32;22.90;51.60
65046;DHT22;54657;52.022;5.534;2023-06-26T15:43:59;22.90;51.50
65046;DHT22;54657;52.022;5.534;2023-06-26T15:46:24;22.80;51.40